Time;durP1;ratioP1;P1;durP2;ratioP2;P2;SDS_P1;SDS_P2;PMS_P1;PMS_P2;Temp;Humidity;BMP_temperature;BMP_pressure;BME280_temperature;BME280_humidity;BME280_pressure;Samples;Min_cycle;Max_cycle;Signal;HPM_P1;HPM_P2
2024/01/11 00:01:15;;;;;;;0.00;0.00;;;-0.40;59.60;;;;;;5069145;28;20211;-27
2024/01/11 00:03:42;;;;;;;0.00;0.00;;;-0.40;59.60;;;;;;5088117;28;20296;-27
2024/01/11 00:06:09;;;;;;;0.00;0.00;;;-0.50;59.50;;;;;;5073102;28;20239;-27
2024/01/11 00:08:39;;;;;;;0.00;0.00;;;-0.40;59.60;;;;;;5065797;28;20199;-27
2024/01/11 00:11:06;;;;;;;0.00;0.00;;;-0.50;59.60;;;;;;5077515;28;20640;-28
2024/01/11 00:13:34;;;;;;;0.00;0.00;;;-0.50;59.60;;;;;;5079603;28;20231;-27
2024/01/11 00:16:01;;;;;;;0.00;0.00;;;-0.50;59.60;;;;;;5066873;28;20237;-27
2024/01/11 00:18:29;;;;;;;0.00;0.00;;;-0.50;59.70;;;;;;5086513;28;20233;-27
2024/01/11 00:20:56;;;;;;;0.00;0.00;;;-0.40;59.70;;;;;;5065981;28;20187;-27
2024/01/11 00:23:26;;;;;;;0.00;0.00;;;-0.50;59.70;;;;;;5081014;28;20326;-27
2024/01/11 00:25:59;;;;;;;0.00;0.00;;;-0.40;59.80;;;;;;5084824;28;21003;-27
2024/01/11 00:28:29;;;;;;;0.00;0.00;;;-0.40;59.80;;;;;;5064374;28;20203;-27
2024/01/11 00:30:59;;;;;;;0.00;0.00;;;-0.40;59.70;;;;;;5082114;28;20203;-28
2024/01/11 00:33:26;;;;;;;0.00;0.00;;;-0.40;59.70;;;;;;5086603;28;20294;-27
2024/01/11 00:35:58;;;;;;;0.00;0.00;;;-0.40;59.60;;;;;;5087907;28;20220;-27
2024/01/11 00:38:26;;;;;;;0.00;0.00;;;-0.50;59.60;;;;;;5086388;28;20205;-27
2024/01/11 00:40:57;;;;;;;0.00;0.00;;;-0.50;59.50;;;;;;5085868;28;20195;-27
2024/01/11 00:43:27;;;;;;;0.00;0.00;;;-0.50;59.70;;;;;;5086128;28;20237;-28
2024/01/11 00:45:54;;;;;;;0.00;0.00;;;-0.50;59.50;;;;;;5087323;28;20201;-27
2024/01/11 00:48:23;;;;;;;0.00;0.00;;;-0.50;59.60;;;;;;5086072;28;20210;-27
2024/01/11 00:50:55;;;;;;;0.00;0.00;;;-0.50;59.60;;;;;;5089231;28;20207;-27
2024/01/11 00:53:23;;;;;;;0.00;0.00;;;-0.60;60.30;;;;;;5089258;28;20216;-27
2024/01/11 00:55:52;;;;;;;0.00;0.00;;;-0.50;59.80;;;;;;5091196;28;20229;-27
2024/01/11 00:58:19;;;;;;;0.00;0.00;;;-0.50;59.70;;;;;;5088003;28;20259;-28
2024/01/11 01:00:46;;;;;;;0.00;0.00;;;-0.50;59.70;;;;;;5075668;28;20202;-27
2024/01/11 01:03:16;;;;;;;0.00;0.00;;;-0.50;59.70;;;;;;5071510;28;20201;-27
2024/01/11 01:05:43;;;;;;;0.00;0.00;;;-0.50;59.80;;;;;;5089611;28;20258;-27
2024/01/11 01:08:14;;;;;;;0.00;0.00;;;-0.50;59.80;;;;;;5088342;28;20211;-27
2024/01/11 01:10:44;;;;;;;0.00;0.00;;;-0.50;59.80;;;;;;5089651;28;20195;-27
2024/01/11 01:13:11;;;;;;;0.00;0.00;;;-0.50;59.80;;;;;;5087196;28;20211;-28
2024/01/11 01:15:39;;;;;;;0.00;0.00;;;-0.50;59.70;;;;;;5084757;28;20211;-27
2024/01/11 01:18:09;;;;;;;0.00;0.00;;;-0.50;59.60;;;;;;5087366;28;20298;-27
2024/01/11 01:20:39;;;;;;;0.00;0.00;;;-0.60;59.60;;;;;;5088630;28;20301;-28
2024/01/11 01:23:06;;;;;;;0.00;0.00;;;-0.60;59.50;;;;;;5087501;28;20213;-27
2024/01/11 01:25:38;;;;;;;0.00;0.00;;;-0.60;59.50;;;;;;5071697;28;20661;-27
2024/01/11 01:28:05;;;;;;;0.00;0.00;;;-0.70;59.50;;;;;;5088179;28;20190;-27
2024/01/11 01:30:32;;;;;;;0.00;0.00;;;-0.70;59.50;;;;;;5089004;28;20685;-27
2024/01/11 01:33:00;;;;;;;0.00;0.00;;;-0.70;59.60;;;;;;5089115;28;20203;-27
2024/01/11 01:35:27;;;;;;;0.00;0.00;;;-0.70;59.60;;;;;;5070530;28;20224;-27
2024/01/11 01:37:55;;;;;;;0.00;0.00;;;-0.70;59.60;;;;;;5081185;28;20207;-27
2024/01/11 01:40:22;;;;;;;0.00;0.00;;;-0.70;59.70;;;;;;5088350;28;20661;-27
2024/01/11 01:42:49;;;;;;;0.00;0.00;;;-0.70;59.80;;;;;;5088083;28;20707;-28
2024/01/11 01:45:21;;;;;;;0.00;0.00;;;-0.70;59.70;;;;;;5069231;28;20206;-27
2024/01/11 01:47:48;;;;;;;0.00;0.00;;;-0.70;59.70;;;;;;5081409;28;20195;-27
2024/01/11 01:50:21;;;;;;;0.00;0.00;;;-0.70;59.70;;;;;;5060128;28;20195;-27
2024/01/11 01:52:51;;;;;;;0.00;0.00;;;-0.70;59.70;;;;;;5067786;28;20196;-27
2024/01/11 01:55:20;;;;;;;0.00;0.00;;;-0.70;59.70;;;;;;5088697;28;20215;-27
2024/01/11 01:57:50;;;;;;;0.00;0.00;;;-0.70;59.70;;;;;;5069113;28;20205;-35
2024/01/11 02:00:20;;;;;;;0.00;0.00;;;-0.80;59.60;;;;;;5086939;28;20199;-35
2024/01/11 02:02:51;;;;;;;0.00;0.00;;;-0.70;59.80;;;;;;5067293;28;20216;-35
2024/01/11 02:05:18;;;;;;;0.00;0.00;;;-0.70;59.80;;;;;;5080924;28;20211;-35
2024/01/11 02:07:46;;;;;;;0.00;0.00;;;-0.70;59.70;;;;;;5082914;28;20646;-35
2024/01/11 02:10:13;;;;;;;0.00;0.00;;;-0.80;59.60;;;;;;5067262;28;20187;-34
2024/01/11 02:12:44;;;;;;;0.00;0.00;;;-0.80;59.60;;;;;;5084018;28;20261;-35
2024/01/11 02:15:11;;;;;;;0.00;0.00;;;-0.80;59.70;;;;;;5069944;28;20195;-35
2024/01/11 02:17:40;;;;;;;0.00;0.00;;;-0.80;59.70;;;;;;5078815;28;20202;-36
2024/01/11 02:20:12;;;;;;;0.00;0.00;;;-0.80;59.80;;;;;;5071279;28;20216;-35
2024/01/11 02:22:43;;;;;;;0.00;0.00;;;-0.80;59.70;;;;;;5080973;28;20195;-36
2024/01/11 02:25:10;;;;;;;0.00;0.00;;;-0.80;59.80;;;;;;5071978;28;20818;-35
2024/01/11 02:27:50;;;;;;;0.00;0.00;;;-0.80;59.80;;;;;;5067523;28;20195;-35
2024/01/11 02:30:18;;;;;;;0.00;0.00;;;-0.80;59.80;;;;;;5068002;28;20290;-36
2024/01/11 02:32:49;;;;;;;0.00;0.00;;;-0.80;59.80;;;;;;5080999;28;20195;-36
2024/01/11 02:35:17;;;;;;;0.00;0.00;;;-0.80;59.70;;;;;;5084472;28;20195;-35
2024/01/11 02:37:46;;;;;;;0.00;0.00;;;-0.80;59.70;;;;;;5084452;28;20722;-35
2024/01/11 02:40:14;;;;;;;0.00;0.00;;;-0.80;59.70;;;;;;5084881;28;20673;-34
2024/01/11 02:42:44;;;;;;;0.00;0.00;;;-0.80;59.60;;;;;;5084868;28;20211;-35
2024/01/11 02:45:14;;;;;;;0.00;0.00;;;-0.90;59.50;;;;;;5084816;28;20499;-35
2024/01/11 02:47:44;;;;;;;0.00;0.00;;;-0.90;59.50;;;;;;5084148;28;20206;-35
2024/01/11 02:50:14;;;;;;;0.00;0.00;;;-0.90;59.50;;;;;;5084463;28;20195;-35
2024/01/11 02:52:43;;;;;;;0.00;0.00;;;-1.00;59.50;;;;;;5084364;28;20690;-35
2024/01/11 02:55:13;;;;;;;0.00;0.00;;;-1.00;59.40;;;;;;5085544;28;20203;-35
2024/01/11 02:57:40;;;;;;;0.00;0.00;;;-1.00;59.50;;;;;;5084192;28;20689;-36
2024/01/11 03:00:08;;;;;;;0.00;0.00;;;-1.00;59.50;;;;;;5085848;28;20201;-35
2024/01/11 03:02:38;;;;;;;0.00;0.00;;;-1.10;59.50;;;;;;5066672;28;20217;-36
2024/01/11 03:05:08;;;;;;;0.00;0.00;;;-1.10;59.50;;;;;;5085745;28;20247;-35
2024/01/11 03:07:36;;;;;;;0.00;0.00;;;-1.10;59.60;;;;;;5083433;28;20207;-36
2024/01/11 03:10:06;;;;;;;0.00;0.00;;;-1.10;59.60;;;;;;5063253;28;20294;-34
2024/01/11 03:12:35;;;;;;;0.00;0.00;;;-1.10;59.60;;;;;;5072770;28;20302;-35
2024/01/11 03:15:02;;;;;;;0.00;0.00;;;-1.10;59.50;;;;;;5086805;28;20233;-35
2024/01/11 03:17:33;;;;;;;0.00;0.00;;;-1.10;60.30;;;;;;5085189;28;20850;-35
2024/01/11 03:20:04;;;;;;;0.00;0.00;;;-1.10;59.70;;;;;;5084403;28;20187;-35
2024/01/11 03:22:32;;;;;;;0.00;0.00;;;-1.10;59.70;;;;;;5068633;28;20264;-36
2024/01/11 03:24:59;;;;;;;0.00;0.00;;;-1.10;60.40;;;;;;5085929;28;20591;-35
2024/01/11 03:27:26;;;;;;;0.00;0.00;;;-1.10;59.80;;;;;;5083978;28;20203;-35
2024/01/11 03:29:53;;;;;;;0.00;0.00;;;-1.10;59.90;;;;;;5081864;28;20302;-28
2024/01/11 03:32:23;;;;;;;0.00;0.00;;;-1.10;59.90;;;;;;5083596;28;20198;-27
2024/01/11 03:34:50;;;;;;;0.00;0.00;;;-1.10;59.80;;;;;;5083535;28;20277;-28
2024/01/11 03:37:22;;;;;;;0.00;0.00;;;-1.10;59.90;;;;;;5067757;28;20227;-27
2024/01/11 03:39:49;;;;;;;0.30;0.00;;;-1.10;59.90;;;;;;5081715;28;20201;-27
2024/01/11 03:42:19;;;;;;;0.00;0.00;;;-1.00;59.90;;;;;;5083628;28;20217;-27
2024/01/11 03:44:48;;;;;;;0.00;0.00;;;-1.00;59.80;;;;;;5084985;28;21051;-28
2024/01/11 03:47:18;;;;;;;0.00;0.00;;;-1.00;59.80;;;;;;5084996;28;20610;-27
2024/01/11 03:49:48;;;;;;;0.00;0.00;;;-1.10;59.60;;;;;;5083755;28;20329;-27
2024/01/11 03:52:18;;;;;;;0.00;0.00;;;-1.10;59.60;;;;;;5065881;28;20707;-28
2024/01/11 03:54:48;;;;;;;0.00;0.00;;;-1.10;59.70;;;;;;5083601;28;20206;-27
2024/01/11 03:57:16;;;;;;;0.00;0.00;;;-1.10;59.80;;;;;;5085636;28;20215;-27
2024/01/11 03:59:44;;;;;;;0.00;0.00;;;-1.10;59.80;;;;;;5082369;28;20206;-31
2024/01/11 04:02:17;;;;;;;0.00;0.00;;;-1.10;59.90;;;;;;5082923;28;20207;-28
2024/01/11 04:04:44;;;;;;;0.00;0.00;;;-1.10;59.90;;;;;;5081719;28;20241;-27
2024/01/11 04:07:11;;;;;;;0.00;0.00;;;-1.10;59.90;;;;;;5084665;28;20233;-27
2024/01/11 04:09:41;;;;;;;0.00;0.00;;;-1.10;59.90;;;;;;5085759;28;20203;-27
2024/01/11 04:12:08;;;;;;;0.00;0.00;;;-1.10;59.80;;;;;;5086304;28;20234;-27
2024/01/11 04:14:45;;;;;;;0.00;0.00;;;-1.10;59.80;;;;;;5086008;28;20206;-27
2024/01/11 04:17:12;;;;;;;0.00;0.00;;;-1.10;59.70;;;;;;5088420;28;20214;-27
2024/01/11 04:19:40;;;;;;;0.00;0.00;;;-1.20;59.70;;;;;;5087888;28;20233;-27
2024/01/11 04:22:07;;;;;;;0.00;0.00;;;-1.20;59.60;;;;;;5065478;28;20211;-27
2024/01/11 04:24:35;;;;;;;0.00;0.00;;;-1.20;59.60;;;;;;5085893;28;20199;-27
2024/01/11 04:27:03;;;;;;;0.00;0.00;;;-1.20;59.70;;;;;;5087320;28;20273;-27
2024/01/11 04:29:30;;;;;;;0.00;0.00;;;-1.20;59.70;;;;;;5085985;28;20634;-27
2024/01/11 04:31:58;;;;;;;0.00;0.00;;;-1.20;59.70;;;;;;5087109;28;20229;-28
2024/01/11 04:34:27;;;;;;;0.00;0.00;;;-1.20;59.80;;;;;;5088498;28;20210;-27
2024/01/11 04:36:55;;;;;;;0.00;0.00;;;-1.30;59.80;;;;;;5087176;28;20233;-27
2024/01/11 04:39:22;;;;;;;0.00;0.00;;;-1.30;59.80;;;;;;5086089;28;20215;-28
2024/01/11 04:41:51;;;;;;;0.00;0.00;;;-1.30;59.80;;;;;;5087969;28;20692;-28
2024/01/11 04:44:19;;;;;;;0.00;0.00;;;-1.30;59.70;;;;;;5069860;28;20884;-27
2024/01/11 04:46:49;;;;;;;0.00;0.00;;;-1.30;59.80;;;;;;5082102;28;20218;-27
2024/01/11 04:49:16;;;;;;;0.00;0.00;;;-1.30;59.80;;;;;;5069803;28;20268;-27
2024/01/11 04:51:43;;;;;;;0.00;0.00;;;-1.30;59.80;;;;;;5087020;28;20252;-28
2024/01/11 04:54:13;;;;;;;0.00;0.00;;;-1.30;59.80;;;;;;5068969;28;20210;-28
2024/01/11 04:56:42;;;;;;;0.00;0.00;;;-1.30;59.80;;;;;;5088929;28;20710;-28
2024/01/11 04:59:15;;;;;;;0.00;0.00;;;-1.30;59.90;;;;;;5085918;28;20206;-28
2024/01/11 05:01:45;;;;;;;0.00;0.00;;;-1.30;59.90;;;;;;5069671;28;20626;-27
2024/01/11 05:04:14;;;;;;;0.00;0.00;;;-1.30;59.90;;;;;;5065644;28;20268;-27
2024/01/11 05:06:44;;;;;;;0.00;0.00;;;-1.30;59.80;;;;;;5089327;28;20235;-35
2024/01/11 05:09:11;;;;;;;0.00;0.00;;;-1.40;59.70;;;;;;5089486;28;20199;-27
2024/01/11 05:11:43;;;;;;;0.00;0.00;;;-1.40;59.70;;;;;;5090803;28;20203;-27
2024/01/11 05:14:13;;;;;;;0.00;0.00;;;-1.40;59.70;;;;;;5088722;28;20219;-27
2024/01/11 05:16:41;;;;;;;0.00;0.00;;;-1.40;59.70;;;;;;5087366;28;20243;-28
2024/01/11 05:19:08;;;;;;;0.00;0.00;;;-1.50;59.60;;;;;;5087314;28;20198;-28
2024/01/11 05:21:35;;;;;;;0.00;0.00;;;-1.50;59.70;;;;;;5087587;28;20195;-28
2024/01/11 05:24:06;;;;;;;0.00;0.00;;;-1.50;59.70;;;;;;5084062;28;20202;-28
2024/01/11 05:26:37;;;;;;;0.00;0.00;;;-1.50;59.70;;;;;;5086319;28;20202;-28
2024/01/11 05:29:12;;;;;;;0.00;0.00;;;-1.50;59.80;;;;;;5086013;28;20825;-36
2024/01/11 05:31:39;;;;;;;0.00;0.00;;;-1.50;59.80;;;;;;5085013;28;20211;-28
2024/01/11 05:34:12;;;;;;;0.00;0.00;;;-1.50;59.80;;;;;;5080818;28;20304;-28
2024/01/11 05:36:40;;;;;;;0.00;0.00;;;-1.50;59.70;;;;;;5082552;28;20714;-27
2024/01/11 05:39:07;;;;;;;0.00;0.00;;;-1.50;59.80;;;;;;5058280;28;20207;-28
2024/01/11 05:41:34;;;;;;;0.00;0.00;;;-1.60;59.70;;;;;;5086118;28;20225;-28
2024/01/11 05:44:02;;;;;;;0.00;0.00;;;-1.60;59.80;;;;;;5084969;28;20203;-28
2024/01/11 05:46:36;;;;;;;0.00;0.00;;;-1.60;59.80;;;;;;5079724;28;20744;-28
2024/01/11 05:49:04;;;;;;;0.00;0.00;;;-1.60;59.90;;;;;;5083497;28;20222;-28
2024/01/11 05:51:31;;;;;;;0.00;0.00;;;-1.60;59.90;;;;;;5085759;28;20215;-28
2024/01/11 05:54:01;;;;;;;0.00;0.00;;;-1.60;59.90;;;;;;5078646;28;20596;-28
2024/01/11 05:56:28;;;;;;;0.00;0.00;;;-1.60;60.00;;;;;;5086231;28;20214;-28
2024/01/11 05:58:55;;;;;;;0.00;0.00;;;-1.50;60.10;;;;;;5088101;28;20642;-28
2024/01/11 06:01:23;;;;;;;0.00;0.00;;;-1.50;60.10;;;;;;5085575;28;20217;-28
2024/01/11 06:03:50;;;;;;;0.00;0.00;;;-1.50;60.10;;;;;;5078217;28;20203;-28
2024/01/11 06:06:20;;;;;;;0.00;0.00;;;-1.50;60.00;;;;;;5070138;28;20245;-28
2024/01/11 06:08:48;;;;;;;0.00;0.00;;;-1.50;60.00;;;;;;5075674;28;20231;-28
2024/01/11 06:11:18;;;;;;;0.00;0.00;;;-1.50;60.00;;;;;;5081439;28;20302;-28
2024/01/11 06:13:45;;;;;;;0.00;0.00;;;-1.50;60.00;;;;;;5081768;28;20206;-28
2024/01/11 06:16:12;;;;;;;0.00;0.00;;;-1.50;60.00;;;;;;5082662;28;20744;-28
2024/01/11 06:18:40;;;;;;;0.00;0.00;;;-1.60;59.90;;;;;;5083489;28;20256;-36
2024/01/11 06:21:07;;;;;;;0.00;0.00;;;-1.60;59.90;;;;;;5070972;28;20226;-37
2024/01/11 06:23:34;;;;;;;0.00;0.00;;;-1.60;59.90;;;;;;5067863;28;20192;-36
2024/01/11 06:26:04;;;;;;;0.00;0.00;;;-1.50;60.00;;;;;;5068504;28;20231;-36
2024/01/11 06:28:31;;;;;;;0.00;0.00;;;-1.60;60.10;;;;;;5087803;28;20197;-36
2024/01/11 06:31:03;;;;;;;0.00;0.00;;;-1.60;60.00;;;;;;5085215;28;20226;-36
2024/01/11 06:33:32;;;;;;;0.00;0.00;;;-1.50;60.90;;;;;;5073632;28;20322;-36
2024/01/11 06:36:01;;;;;;;0.00;0.00;;;-1.50;60.10;;;;;;5079594;28;20202;-36
2024/01/11 06:38:28;;;;;;;0.00;0.00;;;-1.60;59.90;;;;;;5071620;28;20219;-36
2024/01/11 06:40:59;;;;;;;0.00;0.00;;;-1.60;59.80;;;;;;5079776;28;20205;-36
2024/01/11 06:43:27;;;;;;;0.00;0.00;;;-1.60;59.80;;;;;;5072198;28;20215;-36
2024/01/11 06:45:56;;;;;;;0.00;0.00;;;-1.60;59.70;;;;;;5075572;28;20196;-36
2024/01/11 06:48:26;;;;;;;0.00;0.00;;;-1.70;59.70;;;;;;5072210;28;20668;-28
2024/01/11 06:50:53;;;;;;;0.00;0.00;;;-1.70;59.80;;;;;;5081302;28;20557;-28
2024/01/11 06:53:21;;;;;;;0.00;0.00;;;-1.80;59.80;;;;;;5073420;28;20234;-28
2024/01/11 06:55:52;;;;;;;0.00;0.00;;;-1.80;59.90;;;;;;5086321;28;20293;-29
2024/01/11 06:58:24;;;;;;;0.00;0.00;;;-1.80;59.90;;;;;;5081653;28;20223;-28
2024/01/11 07:00:52;;;;;;;0.00;0.00;;;-1.80;60.00;;;;;;5060265;28;20569;-28
2024/01/11 07:03:21;;;;;;;0.00;0.00;;;-1.80;60.00;;;;;;5079825;28;20203;-27
2024/01/11 07:05:48;;;;;;;0.00;0.00;;;-1.80;60.20;;;;;;5082503;28;20246;-27
2024/01/11 07:08:16;;;;;;;0.00;0.00;;;-1.80;60.00;;;;;;5083042;28;20276;-27
2024/01/11 07:10:43;;;;;;;0.00;0.00;;;-1.80;60.10;;;;;;5068106;28;20302;-27
2024/01/11 07:13:16;;;;;;;0.00;0.00;;;-1.80;60.10;;;;;;5085403;28;20740;-27
2024/01/11 07:15:43;;;;;;;0.00;0.00;;;-1.80;60.90;;;;;;5079637;28;20565;-27
2024/01/11 07:18:11;;;;;;;0.00;0.00;;;-1.80;60.10;;;;;;5064596;28;20619;-27
2024/01/11 07:20:38;;;;;;;0.00;0.00;;;-1.80;60.10;;;;;;5066868;28;20276;-27
2024/01/11 07:23:05;;;;;;;0.00;0.00;;;-1.80;60.10;;;;;;5083087;28;20202;-27
2024/01/11 07:25:37;;;;;;;0.00;0.00;;;-1.80;60.10;;;;;;5084947;28;20649;-27
2024/01/11 07:28:07;;;;;;;0.00;0.00;;;-1.80;60.20;;;;;;5083288;28;20203;-27
2024/01/11 07:30:34;;;;;;;0.00;0.00;;;-1.80;60.20;;;;;;5082731;28;21759;-27
2024/01/11 07:33:02;;;;;;;0.00;0.00;;;-1.80;60.10;;;;;;5071115;28;20195;-27
2024/01/11 07:35:32;;;;;;;0.00;0.00;;;-1.80;60.10;;;;;;5080855;28;21625;-27
2024/01/11 07:38:01;;;;;;;0.00;0.00;;;-1.80;60.10;;;;;;5081136;28;20218;-27
2024/01/11 07:40:30;;;;;;;0.00;0.00;;;-1.80;60.20;;;;;;5085253;28;20256;-27
2024/01/11 07:43:01;;;;;;;0.00;0.00;;;-1.80;60.10;;;;;;5075118;28;20200;-27
2024/01/11 07:45:28;;;;;;;0.00;0.00;;;-1.80;59.90;;;;;;5079344;28;20214;-27
2024/01/11 07:47:58;;;;;;;0.00;0.00;;;-1.80;59.90;;;;;;5081672;28;20210;-27
2024/01/11 07:50:26;;;;;;;0.00;0.00;;;-1.90;59.90;;;;;;5086287;28;20209;-28
2024/01/11 07:52:56;;;;;;;0.00;0.00;;;-1.90;59.90;;;;;;5084433;28;20207;-27
2024/01/11 07:55:26;;;;;;;0.00;0.00;;;-1.90;60.00;;;;;;5083736;28;20214;-27
2024/01/11 07:57:54;;;;;;;0.00;0.00;;;-1.90;60.00;;;;;;5078000;28;20310;-27
2024/01/11 08:00:24;;;;;;;0.00;0.00;;;-1.90;60.10;;;;;;5089813;28;20691;-27
2024/01/11 08:02:51;;;;;;;0.00;0.00;;;-1.90;60.20;;;;;;5079791;28;20794;-28
2024/01/11 08:05:19;;;;;;;0.00;0.00;;;-1.90;60.20;;;;;;5088344;28;20568;-27
2024/01/11 08:07:48;;;;;;;0.00;0.00;;;-1.90;60.20;;;;;;5088356;28;20623;-28
2024/01/11 08:10:18;;;;;;;0.00;0.00;;;-1.90;60.20;;;;;;5088364;28;20219;-28
2024/01/11 08:12:46;;;;;;;0.00;0.00;;;-1.90;60.10;;;;;;5083171;28;20222;-28
2024/01/11 08:15:15;;;;;;;0.00;0.00;;;-1.90;60.10;;;;;;5086629;28;20217;-28
2024/01/11 08:17:45;;;;;;;0.00;0.00;;;-1.90;60.00;;;;;;5071326;28;20875;-28
2024/01/11 08:20:15;;;;;;;0.00;0.00;;;-1.90;60.00;;;;;;5089038;28;20305;-28
2024/01/11 08:22:46;;;;;;;0.00;0.00;;;-1.90;59.90;;;;;;5089955;28;20323;-28
2024/01/11 08:25:13;;;;;;;0.00;0.00;;;-2.00;59.90;;;;;;5088331;28;20217;-28
2024/01/11 08:27:41;;;;;;;0.00;0.00;;;-2.00;59.90;;;;;;5088447;28;20203;-28
2024/01/11 08:30:12;;;;;;;0.00;0.00;;;-2.00;60.00;;;;;;5081490;28;20219;-28
2024/01/11 08:32:47;;;;;;;0.00;0.00;;;-2.00;60.80;;;;;;5083645;28;20217;-28
2024/01/11 08:35:15;;;;;;;0.00;0.00;;;-2.10;60.10;;;;;;5077991;28;20203;-28
2024/01/11 08:37:43;;;;;;;0.00;0.00;;;-2.10;60.00;;;;;;5088820;28;20226;-28
2024/01/11 08:40:10;;;;;;;0.00;0.00;;;-2.10;60.00;;;;;;5073224;28;20203;-28
2024/01/11 08:42:42;;;;;;;0.00;0.00;;;-2.10;60.00;;;;;;5076946;28;20583;-28
2024/01/11 08:45:17;;;;;;;0.00;0.00;;;-2.10;60.20;;;;;;5082829;28;20943;-28
2024/01/11 08:47:48;;;;;;;0.00;0.00;;;-2.10;60.30;;;;;;5086494;28;20661;-28
2024/01/11 08:50:16;;;;;;;0.00;0.00;;;-2.10;60.30;;;;;;5086266;28;20305;-28
2024/01/11 08:52:46;;;;;;;0.00;0.00;;;-2.00;60.30;;;;;;5089737;28;20221;-28
2024/01/11 08:55:16;;;;;;;0.00;0.00;;;-2.00;60.40;;;;;;5091391;28;20576;-28
2024/01/11 08:57:43;;;;;;;0.00;0.00;;;-2.00;60.30;;;;;;5089290;28;20311;-28
2024/01/11 09:00:17;;;;;;;0.00;0.00;;;-2.00;60.30;;;;;;5087702;28;20646;-28
2024/01/11 09:02:45;;;;;;;0.00;0.00;;;-2.00;60.30;;;;;;5088181;28;20260;-28
2024/01/11 09:05:18;;;;;;;0.00;0.00;;;-2.00;60.30;;;;;;5088533;28;20268;-28
2024/01/11 09:07:53;;;;;;;0.00;0.00;;;-2.00;60.30;;;;;;5088981;28;20213;-28
2024/01/11 09:10:22;;;;;;;0.00;0.00;;;-2.00;60.40;;;;;;5087584;28;20199;-28
2024/01/11 09:12:50;;;;;;;0.00;0.00;;;-2.00;60.40;;;;;;5088229;28;20199;-27
2024/01/11 09:15:17;;;;;;;0.00;0.00;;;-2.00;60.50;;;;;;5085940;28;20223;-28
2024/01/11 09:17:45;;;;;;;0.00;0.00;;;-2.00;60.50;;;;;;5085691;28;20214;-28
2024/01/11 09:20:14;;;;;;;0.00;0.00;;;-2.00;60.60;;;;;;5089013;28;20198;-28
2024/01/11 09:22:41;;;;;;;0.00;0.00;;;-2.00;60.70;;;;;;5087724;28;20203;-28
2024/01/11 09:25:09;;;;;;;0.00;0.00;;;-1.90;60.70;;;;;;5087290;28;20199;-28
2024/01/11 09:27:36;;;;;;;0.00;0.00;;;-1.90;60.70;;;;;;5088372;28;20215;-28
2024/01/11 09:30:04;;;;;;;0.00;0.00;;;-1.90;60.70;;;;;;5090158;28;20199;-28
2024/01/11 09:32:37;;;;;;;0.00;0.00;;;-1.80;60.70;;;;;;5079425;28;20957;-28
2024/01/11 09:35:10;;;;;;;0.00;0.00;;;-1.80;60.70;;;;;;5084949;28;20218;-28
2024/01/11 09:37:42;;;;;;;0.00;0.00;;;-1.80;60.70;;;;;;5089420;28;20252;-28
2024/01/11 09:40:10;;;;;;;0.00;0.00;;;-1.80;60.80;;;;;;5084351;28;20215;-28
2024/01/11 09:42:42;;;;;;;0.00;0.00;;;-1.70;60.80;;;;;;5089762;28;20648;-27
2024/01/11 09:45:17;;;;;;;0.00;0.00;;;-1.70;60.80;;;;;;5068320;28;20199;-28
2024/01/11 09:47:50;;;;;;;0.00;0.00;;;-1.70;60.80;;;;;;5069503;28;20215;-28
2024/01/11 09:50:21;;;;;;;0.00;0.00;;;-1.60;60.90;;;;;;5070399;28;20299;-28
2024/01/11 09:52:52;;;;;;;0.00;0.00;;;-1.60;60.90;;;;;;5090001;28;20246;-28
2024/01/11 09:55:19;;;;;;;0.00;0.00;;;-1.60;60.80;;;;;;5086105;28;20221;-28
2024/01/11 09:57:54;;;;;;;0.00;0.00;;;-1.60;60.90;;;;;;5075837;28;20724;-28
2024/01/11 10:00:27;;;;;;;0.00;0.00;;;-1.60;61.00;;;;;;5068984;28;20192;-28
2024/01/11 10:02:55;;;;;;;0.00;0.00;;;-1.50;61.00;;;;;;5085803;28;20290;-28
2024/01/11 10:05:23;;;;;;;0.00;0.00;;;-1.50;61.00;;;;;;5087097;28;20230;-28
2024/01/11 10:07:52;;;;;;;0.00;0.00;;;-1.50;60.90;;;;;;5083835;28;20622;-28
2024/01/11 10:10:19;;;;;;;0.00;0.00;;;-1.50;60.90;;;;;;5080411;28;20312;-27
2024/01/11 10:12:48;;;;;;;0.00;0.00;;;-1.40;61.10;;;;;;5086268;28;20234;-28
2024/01/11 10:15:15;;;;;;;0.00;0.00;;;-1.40;61.10;;;;;;5088187;28;20229;-28
2024/01/11 10:17:47;;;;;;;0.00;0.00;;;-1.40;61.10;;;;;;5086779;28;20239;-28
2024/01/11 10:20:16;;;;;;;0.00;0.00;;;-1.40;61.00;;;;;;5087021;28;20234;-28
2024/01/11 10:22:47;;;;;;;0.00;0.00;;;-1.30;61.10;;;;;;5086616;28;20221;-28
2024/01/11 10:25:16;;;;;;;0.00;0.00;;;-1.30;61.20;;;;;;5088504;28;20284;-27
2024/01/11 10:27:47;;;;;;;0.00;0.00;;;-1.30;61.20;;;;;;5088684;28;20211;-27
2024/01/11 10:30:16;;;;;;;0.00;0.00;;;-1.20;61.30;;;;;;5085248;28;20262;-27
2024/01/11 10:32:45;;;;;;;0.00;0.00;;;-1.20;61.30;;;;;;5087586;28;20684;-27
2024/01/11 10:35:18;;;;;;;0.00;0.00;;;-1.20;61.40;;;;;;5087233;28;20194;-28
2024/01/11 10:37:47;;;;;;;0.00;0.00;;;-1.10;61.30;;;;;;5086418;28;20222;-27
2024/01/11 10:40:20;;;;;;;0.00;0.00;;;-1.10;61.40;;;;;;5087273;28;20304;-27
2024/01/11 10:42:52;;;;;;;0.00;0.00;;;-1.00;61.40;;;;;;5084461;28;20614;-27
2024/01/11 10:45:20;;;;;;;0.00;0.00;;;-1.00;61.40;;;;;;5089390;28;20742;-27
2024/01/11 10:48:01;;;;;;;0.00;0.00;;;-1.00;61.50;;;;;;5088716;28;20294;-27
2024/01/11 10:50:39;;;;;;;0.00;0.00;;;-0.90;61.50;;;;;;5085616;28;20873;-27
2024/01/11 10:53:39;;;;;;;0.00;0.00;;;-0.90;62.20;;;;;;5082388;28;20214;-27
2024/01/11 10:56:11;;;;;;;0.00;0.00;;;-0.90;61.50;;;;;;5084253;28;20202;-27
2024/01/11 10:58:46;;;;;;;0.00;0.00;;;-0.80;61.50;;;;;;5083301;28;20586;-27
2024/01/11 11:01:14;;;;;;;0.00;0.00;;;-0.80;61.50;;;;;;5083787;28;20586;-27
2024/01/11 11:03:50;;;;;;;0.00;0.00;;;-0.80;61.70;;;;;;5080943;28;20649;-27
2024/01/11 11:06:19;;;;;;;0.00;0.00;;;-0.80;61.70;;;;;;5068321;28;20306;-28
2024/01/11 11:08:49;;;;;;;0.00;0.00;;;-0.70;62.00;;;;;;5086387;28;20211;-28
2024/01/11 11:11:18;;;;;;;0.00;0.00;;;-0.70;61.80;;;;;;5086610;28;20302;-28
2024/01/11 11:13:48;;;;;;;0.00;0.00;;;-0.60;61.80;;;;;;5084960;28;20211;-27
2024/01/11 11:16:16;;;;;;;0.00;0.00;;;-0.60;61.90;;;;;;5086441;28;20199;-27
2024/01/11 11:18:46;;;;;;;0.00;0.00;;;-0.50;61.90;;;;;;5086616;28;20757;-26
2024/01/11 11:21:14;;;;;;;0.00;0.00;;;-0.50;61.90;;;;;;5083469;28;20692;-27
2024/01/11 11:23:42;;;;;;;0.00;0.00;;;-0.50;62.00;;;;;;5083334;28;20203;-27
2024/01/11 11:26:16;;;;;;;0.00;0.00;;;-0.40;61.90;;;;;;5068767;28;20199;-27
2024/01/11 11:28:48;;;;;;;0.00;0.00;;;-0.40;62.00;;;;;;5086575;28;20215;-27
2024/01/11 11:31:38;;;;;;;0.00;0.00;;;-0.30;62.00;;;;;;5088145;28;20651;-27
2024/01/11 11:34:06;;;;;;;0.00;0.00;;;-0.30;62.10;;;;;;5085831;28;20222;-27
2024/01/11 11:36:41;;;;;;;0.00;0.00;;;-0.20;62.10;;;;;;5086852;28;20322;-27
2024/01/11 11:39:13;;;;;;;0.00;0.00;;;-0.20;62.10;;;;;;5082001;28;20646;-27
2024/01/11 11:41:42;;;;;;;0.00;0.00;;;-0.10;62.10;;;;;;5086461;28;20973;-27
2024/01/11 11:44:18;;;;;;;0.00;0.00;;;-0.10;62.20;;;;;;5087553;28;20703;-28
2024/01/11 11:46:46;;;;;;;0.00;0.00;;;0.00;62.40;;;;;;5079789;28;20207;-27
2024/01/11 11:49:14;;;;;;;0.00;0.00;;;0.00;62.30;;;;;;5067427;28;20198;-27
2024/01/11 11:51:44;;;;;;;0.00;0.00;;;0.10;62.30;;;;;;5087858;28;20194;-27
2024/01/11 11:54:11;;;;;;;0.00;0.00;;;0.10;62.30;;;;;;5086837;28;20203;-27
2024/01/11 11:56:40;;;;;;;0.00;0.00;;;0.20;62.40;;;;;;5079468;28;20207;-27
2024/01/11 11:59:10;;;;;;;0.00;0.00;;;0.30;62.50;;;;;;5071354;28;20211;-27
2024/01/11 12:01:38;;;;;;;0.00;0.00;;;0.30;62.30;;;;;;5079500;28;20280;-27
2024/01/11 12:04:10;;;;;;;0.00;0.00;;;0.40;62.40;;;;;;5081606;28;20215;-27
2024/01/11 12:06:37;;;;;;;0.00;0.00;;;0.50;62.50;;;;;;5067963;28;20689;-27
2024/01/11 12:09:05;;;;;;;0.00;0.00;;;0.50;62.50;;;;;;5083705;28;20242;-27
2024/01/11 12:11:36;;;;;;;0.00;0.00;;;0.50;62.40;;;;;;5077445;28;20256;-27
2024/01/11 12:14:03;;;;;;;0.00;0.00;;;0.60;62.40;;;;;;5071451;28;20203;-27
2024/01/11 12:16:30;;;;;;;0.00;0.00;;;0.60;62.40;;;;;;5074710;28;20203;-27
2024/01/11 12:18:58;;;;;;;0.00;0.00;;;0.70;62.50;;;;;;5080489;28;20226;-27
2024/01/11 12:21:26;;;;;;;0.00;0.00;;;0.70;62.50;;;;;;5060361;28;20549;-27
2024/01/11 12:23:56;;;;;;;0.00;0.00;;;0.80;62.50;;;;;;5071670;28;20218;-27
2024/01/11 12:26:26;;;;;;;0.00;0.00;;;0.80;62.50;;;;;;5072989;28;20208;-27
2024/01/11 12:28:55;;;;;;;0.00;0.00;;;0.80;63.30;;;;;;5074962;28;20206;-27
2024/01/11 12:31:23;;;;;;;0.00;0.00;;;0.90;62.50;;;;;;5086892;28;20210;-27
2024/01/11 12:33:53;;;;;;;0.00;0.00;;;0.90;62.60;;;;;;5085140;28;20218;-27
2024/01/11 12:36:20;;;;;;;0.00;0.00;;;1.00;62.70;;;;;;5081511;28;20210;-28
2024/01/11 12:38:50;;;;;;;0.00;0.00;;;1.00;62.60;;;;;;5074677;28;20230;-27
2024/01/11 12:41:22;;;;;;;0.00;0.00;;;1.00;62.50;;;;;;5072126;28;20648;-27
2024/01/11 12:43:53;;;;;;;0.00;0.00;;;1.10;62.60;;;;;;5069345;28;20207;-27
2024/01/11 12:46:20;;;;;;;0.00;0.00;;;1.10;62.60;;;;;;5076215;28;20195;-27
2024/01/11 12:48:49;;;;;;;0.00;0.00;;;1.20;62.70;;;;;;5078978;28;20746;-27
2024/01/11 12:51:18;;;;;;;0.00;0.00;;;1.20;62.70;;;;;;5080774;28;20670;-27
2024/01/11 12:53:49;;;;;;;0.00;0.00;;;1.20;62.60;;;;;;5076320;28;20207;-27
2024/01/11 12:56:21;;;;;;;0.00;0.00;;;1.30;62.70;;;;;;5074958;28;20222;-27
2024/01/11 12:58:51;;;;;;;0.00;0.00;;;1.30;62.70;;;;;;5082121;28;20310;-27